Station Historical Data
Daily Summary for February 11, 2017 Units:  English    Metric   Both
« Previous Day
Next Day »
Daily Weekly Monthly Yearly Custom
  High: Low: Average:
Temperature: 39.9 °F 31.0 °F 34.8 °F
Dew Point: 33.9 °F 19.2 °F 28.7 °F
Humidity: 85% 61% 79%
Wind Speed: 7.0mph 0.0mph 2.3mph
Wind Gust: 10.0mph - -
Wind- - SSW
Pressure: 30.06 in 29.77 in -
Precipitation: 0.00 in    
Historical Graphs
 
 
Tabular Data for February 11, 2017
Time Temperature Dew Point Pressure Wind Wind Speed Wind Gust Humidity Rainfall Rate (Hourly)
00:04 31.1 °F 19.2 °F 29.81 in SW 3.0 mph 7.0 mph 61% 0.00 in
00:09 31.0 °F 19.5 °F 29.81 in WSW 3.0 mph 6.0 mph 62% 0.00 in
00:14 31.1 °F 19.6 °F 29.80 in SW 3.0 mph 6.0 mph 62% 0.00 in
00:19 31.2 °F 19.7 °F 29.80 in SW 2.0 mph 6.0 mph 62% 0.00 in
00:24 31.3 °F 19.8 °F 29.81 in WSW 3.0 mph 7.0 mph 62% 0.00 in
00:29 31.4 °F 20.2 °F 29.80 in SW 3.0 mph 8.0 mph 63% 0.00 in
00:34 31.4 °F 20.2 °F 29.80 in SW 3.0 mph 8.0 mph 63% 0.00 in
00:39 31.4 °F 19.9 °F 29.80 in SW 2.0 mph 5.0 mph 62% 0.00 in
00:44 31.4 °F 19.9 °F 29.80 in SSW 4.0 mph 6.0 mph 62% 0.00 in
00:49 31.5 °F 20.0 °F 29.80 in SW 3.0 mph 5.0 mph 62% 0.00 in
00:54 31.4 °F 19.9 °F 29.79 in SW 3.0 mph 4.0 mph 62% 0.00 in
00:59 31.4 °F 19.9 °F 29.79 in SW 2.0 mph 5.0 mph 62% 0.00 in
01:04 31.3 °F 20.2 °F 29.79 in SW 2.0 mph 5.0 mph 63% 0.00 in
01:09 31.2 °F 20.4 °F 29.79 in WSW 3.0 mph 3.0 mph 64% 0.00 in
01:14 31.2 °F 20.1 °F 29.78 in SW 1.0 mph 4.0 mph 63% 0.00 in
01:19 31.2 °F 20.4 °F 29.79 in West 1.0 mph 4.0 mph 64% 0.00 in
01:24 31.2 °F 20.4 °F 29.79 in SW 2.0 mph 5.0 mph 64% 0.00 in
01:29 31.3 °F 20.9 °F 29.78 in Calm   5.0 mph 65% 0.00 in
01:34 31.4 °F 20.6 °F 29.79 in WSW 2.0 mph 5.0 mph 64% 0.00 in
01:39 31.5 °F 21.1 °F 29.78 in WSW 2.0 mph 6.0 mph 65% 0.00 in
01:44 31.5 °F 21.1 °F 29.78 in SW 3.0 mph 7.0 mph 65% 0.00 in
01:49 31.5 °F 21.4 °F 29.78 in SW 2.0 mph 4.0 mph 66% 0.00 in
01:54 31.6 °F 21.5 °F 29.78 in WSW 2.0 mph 3.0 mph 66% 0.00 in
01:59 31.6 °F 21.9 °F 29.79 in West 2.0 mph 3.0 mph 67% 0.00 in
02:04 31.5 °F 21.4 °F 29.78 in SW 2.0 mph 7.0 mph 66% 0.00 in
02:09 31.6 °F 21.5 °F 29.78 in SSW 3.0 mph 7.0 mph 66% 0.00 in
02:14 31.7 °F 21.6 °F 29.77 in SW 3.0 mph 6.0 mph 66% 0.00 in
02:19 31.8 °F 21.7 °F 29.77 in SSW 4.0 mph 5.0 mph 66% 0.00 in
02:24 31.9 °F 22.2 °F 29.77 in WSW 2.0 mph 4.0 mph 67% 0.00 in
02:29 31.9 °F 22.2 °F 29.78 in Calm   4.0 mph 67% 0.00 in
02:34 31.8 °F 22.1 °F 29.78 in WSW 2.0 mph 4.0 mph 67% 0.00 in
02:39 32.0 °F 22.3 °F 29.78 in SW 2.0 mph 5.0 mph 67% 0.00 in
02:44 32.0 °F 22.3 °F 29.78 in SW 2.0 mph 5.0 mph 67% 0.00 in
02:49 32.1 °F 22.7 °F 29.77 in SW 3.0 mph 4.0 mph 68% 0.00 in
02:54 32.1 °F 22.7 °F 29.77 in SW 3.0 mph 4.0 mph 68% 0.00 in
02:59 32.1 °F 22.7 °F 29.77 in Calm   3.0 mph 68% 0.00 in
03:04 32.1 °F 23.1 °F 29.77 in Calm   2.0 mph 69% 0.00 in
03:09 32.1 °F 22.7 °F 29.77 in WSW 1.0 mph 4.0 mph 68% 0.00 in
03:14 32.1 °F 23.1 °F 29.78 in WSW 2.0 mph 4.0 mph 69% 0.00 in
03:19 32.2 °F 22.8 °F 29.78 in WSW 2.0 mph 4.0 mph 68% 0.00 in
03:24 32.3 °F 22.9 °F 29.78 in WSW 1.0 mph 4.0 mph 68% 0.00 in
03:29 32.4 °F 23.0 °F 29.79 in SW 3.0 mph 4.0 mph 68% 0.00 in
03:34 32.4 °F 23.4 °F 29.79 in SW 2.0 mph 4.0 mph 69% 0.00 in
03:39 32.4 °F 23.4 °F 29.78 in SW 1.0 mph 4.0 mph 69% 0.00 in
03:44 32.3 °F 23.3 °F 29.78 in SW 1.0 mph 4.0 mph 69% 0.00 in
03:49 32.3 °F 23.6 °F 29.78 in SW 1.0 mph 4.0 mph 70% 0.00 in
03:54 32.2 °F 23.5 °F 29.78 in SW 1.0 mph 2.0 mph 70% 0.00 in
03:59 32.0 °F 23.3 °F 29.78 in Calm   2.0 mph 70% 0.00 in
04:04 31.8 °F 23.1 °F 29.78 in SSW 1.0 mph 4.0 mph 70% 0.00 in
04:09 31.6 °F 22.9 °F 29.78 in SSW 1.0 mph 4.0 mph 70% 0.00 in
04:14 31.6 °F 23.3 °F 29.78 in SSW 1.0 mph 3.0 mph 71% 0.00 in
04:19 31.5 °F 23.2 °F 29.78 in SW 1.0 mph 4.0 mph 71% 0.00 in
04:24 31.2 °F 22.9 °F 29.78 in SW 1.0 mph 4.0 mph 71% 0.00 in
04:29 31.1 °F 23.1 °F 29.79 in Calm   4.0 mph 72% 0.00 in
04:34 31.1 °F 23.1 °F 29.79 in SW 1.0 mph 2.0 mph 72% 0.00 in
04:39 31.1 °F 23.1 °F 29.79 in SW 1.0 mph 3.0 mph 72% 0.00 in
04:44 31.2 °F 23.5 °F 29.79 in SW 1.0 mph 4.0 mph 73% 0.00 in
04:49 31.3 °F 23.6 °F 29.79 in SW 1.0 mph 4.0 mph 73% 0.00 in
04:54 31.1 °F 23.5 °F 29.79 in SW 1.0 mph 4.0 mph 73% 0.00 in
04:59 31.1 °F 24.1 °F 29.79 in SSW 1.0 mph 3.0 mph 75% 0.00 in
05:04 31.2 °F 24.5 °F 29.79 in SW 1.0 mph 4.0 mph 76% 0.00 in
05:09 31.4 °F 25.0 °F 29.79 in SW 2.0 mph 4.0 mph 77% 0.00 in
05:14 31.5 °F 25.4 °F 29.79 in SW 2.0 mph 4.0 mph 78% 0.00 in
05:19 31.8 °F 26.3 °F 29.80 in WSW 4.0 mph 7.0 mph 80% 0.00 in
05:24 32.3 °F 26.8 °F 29.80 in WSW 6.0 mph 6.0 mph 80% 0.00 in
05:29 32.7 °F 27.5 °F 29.80 in WSW 4.0 mph 7.0 mph 81% 0.00 in
05:34 33.0 °F 27.8 °F 29.80 in WSW 1.0 mph 7.0 mph 81% 0.00 in
05:39 33.3 °F 28.1 °F 29.79 in SW 2.0 mph 7.0 mph 81% 0.00 in
05:44 33.5 °F 28.3 °F 29.80 in WSW 4.0 mph 10.0 mph 81% 0.00 in
05:49 33.9 °F 28.7 °F 29.80 in WSW 5.0 mph 10.0 mph 81% 0.00 in
05:54 34.0 °F 28.5 °F 29.80 in WSW 4.0 mph 8.0 mph 80% 0.00 in
05:59 34.2 °F 28.7 °F 29.81 in WSW 4.0 mph 8.0 mph 80% 0.00 in
06:04 34.2 °F 28.7 °F 29.80 in West 4.0 mph 6.0 mph 80% 0.00 in
06:09 34.1 °F 28.6 °F 29.80 in WSW 3.0 mph 6.0 mph 80% 0.00 in
06:14 34.0 °F 28.5 °F 29.80 in WSW 4.0 mph 7.0 mph 80% 0.00 in
06:19 34.0 °F 28.5 °F 29.81 in WSW 3.0 mph 7.0 mph 80% 0.00 in
06:24 33.8 °F 28.3 °F 29.81 in WSW 3.0 mph 6.0 mph 80% 0.00 in
06:29 33.6 °F 28.1 °F 29.81 in WSW 2.0 mph 5.0 mph 80% 0.00 in
06:34 33.5 °F 28.0 °F 29.81 in WSW 3.0 mph 5.0 mph 80% 0.00 in
06:39 33.3 °F 28.1 °F 29.82 in WSW 3.0 mph 5.0 mph 81% 0.00 in
06:44 33.0 °F 28.1 °F 29.82 in SW 2.0 mph 4.0 mph 82% 0.00 in
06:49 32.9 °F 28.0 °F 29.82 in SW 3.0 mph 5.0 mph 82% 0.00 in
06:54 32.7 °F 28.1 °F 29.82 in WSW 3.0 mph 6.0 mph 83% 0.00 in
06:59 32.6 °F 28.0 °F 29.82 in WSW 3.0 mph 6.0 mph 83% 0.00 in
07:04 32.5 °F 27.9 °F 29.82 in WSW 3.0 mph 5.0 mph 83% 0.00 in
07:09 32.3 °F 28.0 °F 29.83 in WSW 3.0 mph 4.0 mph 84% 0.00 in
07:14 32.2 °F 27.9 °F 29.83 in WSW 1.0 mph 5.0 mph 84% 0.00 in
07:19 32.1 °F 27.8 °F 29.83 in WSW 3.0 mph 4.0 mph 84% 0.00 in
07:24 32.2 °F 28.2 °F 29.83 in SW 3.0 mph 5.0 mph 85% 0.00 in
07:29 32.3 °F 28.3 °F 29.83 in SW 3.0 mph 6.0 mph 85% 0.00 in
07:34 32.5 °F 28.5 °F 29.84 in SW 3.0 mph 6.0 mph 85% 0.00 in
07:39 32.6 °F 28.6 °F 29.84 in SW 2.0 mph 4.0 mph 85% 0.00 in
07:44 32.8 °F 28.8 °F 29.85 in WSW 3.0 mph 5.0 mph 85% 0.00 in
07:49 33.0 °F 29.0 °F 29.84 in WSW 5.0 mph 7.0 mph 85% 0.00 in
07:54 33.2 °F 29.2 °F 29.84 in WSW 3.0 mph 6.0 mph 85% 0.00 in
07:59 33.6 °F 29.6 °F 29.85 in WSW 4.0 mph 8.0 mph 85% 0.00 in
08:04 33.9 °F 29.9 °F 29.86 in WSW 4.0 mph 8.0 mph 85% 0.00 in
08:09 34.1 °F 30.1 °F 29.86 in WSW 5.0 mph 10.0 mph 85% 0.00 in
08:14 34.2 °F 30.2 °F 29.86 in WSW 5.0 mph 10.0 mph 85% 0.00 in
08:19 34.2 °F 30.2 °F 29.86 in West 3.0 mph 8.0 mph 85% 0.00 in
08:24 34.3 °F 30.3 °F 29.87 in West 4.0 mph 8.0 mph 85% 0.00 in
08:29 34.3 °F 30.3 °F 29.88 in WSW 4.0 mph 8.0 mph 85% 0.00 in
08:34 34.4 °F 30.4 °F 29.88 in WSW 4.0 mph 8.0 mph 85% 0.00 in
08:39 34.6 °F 30.6 °F 29.88 in WSW 4.0 mph 9.0 mph 85% 0.00 in
08:44 34.6 °F 30.6 °F 29.88 in WSW 4.0 mph 10.0 mph 85% 0.00 in
08:49 34.7 °F 30.7 °F 29.88 in West 3.0 mph 7.0 mph 85% 0.00 in
08:54 34.7 °F 30.7 °F 29.88 in WSW 5.0 mph 6.0 mph 85% 0.00 in
08:59 34.8 °F 30.8 °F 29.89 in WSW 4.0 mph 8.0 mph 85% 0.00 in
09:04 34.8 °F 30.5 °F 29.89 in WSW 4.0 mph 8.0 mph 84% 0.00 in
09:09 34.9 °F 30.6 °F 29.88 in WSW 4.0 mph 8.0 mph 84% 0.00 in
09:14 35.0 °F 30.7 °F 29.89 in WSW 4.0 mph 7.0 mph 84% 0.00 in
09:19 35.1 °F 30.8 °F 29.89 in WSW 4.0 mph 7.0 mph 84% 0.00 in
09:24 35.1 °F 30.8 °F 29.89 in SW 3.0 mph 8.0 mph 84% 0.00 in
09:29 35.2 °F 30.9 °F 29.88 in SW 3.0 mph 7.0 mph 84% 0.00 in
09:34 35.2 °F 30.9 °F 29.88 in SW 4.0 mph 7.0 mph 84% 0.00 in
09:39 35.2 °F 30.9 °F 29.89 in SW 4.0 mph 7.0 mph 84% 0.00 in
09:44 35.2 °F 30.9 °F 29.89 in SW 3.0 mph 7.0 mph 84% 0.00 in
09:49 35.2 °F 30.9 °F 29.89 in WSW 6.0 mph 6.0 mph 84% 0.00 in
09:54 35.3 °F 31.2 °F 29.90 in WSW 4.0 mph 7.0 mph 85% 0.00 in
09:59 35.4 °F 31.0 °F 29.91 in WSW 4.0 mph 7.0 mph 84% 0.00 in
10:04 35.3 °F 30.9 °F 29.91 in WSW 4.0 mph 8.0 mph 84% 0.00 in
10:09 35.3 °F 30.9 °F 29.90 in WSW 4.0 mph 10.0 mph 84% 0.01 in
10:14 35.3 °F 30.9 °F 29.90 in WSW 5.0 mph 10.0 mph 84% 0.01 in
10:19 35.4 °F 31.0 °F 29.90 in WSW 4.0 mph 7.0 mph 84% 0.02 in
10:24 35.5 °F 31.1 °F 29.90 in SSW 4.0 mph 8.0 mph 84% 0.02 in
10:29 35.6 °F 31.2 °F 29.91 in WSW 5.0 mph 8.0 mph 84% 0.03 in
10:34 35.7 °F 31.3 °F 29.90 in WSW 5.0 mph 8.0 mph 84% 0.03 in
10:39 35.8 °F 31.4 °F 29.90 in West 3.0 mph 7.0 mph 84% 0.04 in
10:44 35.8 °F 31.4 °F 29.90 in SW 3.0 mph 9.0 mph 84% 0.04 in
10:49 36.4 °F 31.7 °F 29.91 in WSW 4.0 mph 9.0 mph 83% 0.04 in
10:54 36.9 °F 31.9 °F 29.91 in WSW 5.0 mph 9.0 mph 82% 0.05 in
10:59 37.3 °F 32.3 °F 29.92 in SW 6.0 mph 10.0 mph 82% 0.05 in
11:04 37.6 °F 32.3 °F 29.91 in WSW 4.0 mph 10.0 mph 81% 0.06 in
11:09 37.7 °F 32.1 °F 29.91 in WSW 3.0 mph 7.0 mph 80% 0.05 in
11:14 38.7 °F 33.1 °F 29.92 in WSW 3.0 mph 7.0 mph 80% 0.04 in
11:19 38.4 °F 32.8 °F 29.92 in WSW 6.0 mph 7.0 mph 80% 0.04 in
11:24 38.0 °F 32.1 °F 29.92 in WSW 4.0 mph 9.0 mph 79% 0.04 in
11:29 38.4 °F 33.1 °F 29.92 in WSW 4.0 mph 9.0 mph 81% 0.03 in
11:34 37.6 °F 32.0 °F 29.92 in WSW 4.0 mph 8.0 mph 80% 0.03 in
11:44 38.0 °F 32.7 °F 29.92 in WSW 4.0 mph 8.0 mph 81% 0.02 in
11:49 37.8 °F 32.5 °F 29.93 in WSW 4.0 mph 8.0 mph 81% 0.02 in
11:54 38.4 °F 33.1 °F 29.93 in WSW 4.0 mph 7.0 mph 81% 0.01 in
11:59 38.3 °F 33.0 °F 29.93 in SW 6.0 mph 8.0 mph 81% 0.01 in
12:04 38.5 °F 32.9 °F 29.94 in WSW 3.0 mph 7.0 mph 80% 0.00 in
12:09 38.4 °F 32.8 °F 29.94 in WSW 4.0 mph 7.0 mph 80% 0.00 in
12:14 38.7 °F 33.1 °F 29.94 in NW 3.0 mph 7.0 mph 80% 0.00 in
12:19 38.5 °F 32.9 °F 29.94 in WSW 4.0 mph 6.0 mph 80% 0.00 in
12:24 38.3 °F 33.0 °F 29.94 in WSW 2.0 mph 5.0 mph 81% 0.00 in
12:29 38.2 °F 32.6 °F 29.95 in SW 3.0 mph 7.0 mph 80% 0.00 in
12:34 38.4 °F 33.1 °F 29.94 in WSW 1.0 mph 4.0 mph 81% 0.00 in
12:39 39.0 °F 33.7 °F 29.94 in WSW 4.0 mph 4.0 mph 81% 0.00 in
12:44 39.2 °F 33.2 °F 29.93 in WSW 2.0 mph 5.0 mph 79% 0.00 in
12:49 39.3 °F 33.3 °F 29.94 in SW 5.0 mph 7.0 mph 79% 0.00 in
12:54 39.9 °F 33.9 °F 29.95 in South 4.0 mph 7.0 mph 79% 0.00 in
12:59 39.3 °F 33.0 °F 29.95 in SSW 5.0 mph 6.0 mph 78% 0.00 in
13:04 39.5 °F 33.8 °F 29.95 in SW 3.0 mph 6.0 mph 80% 0.00 in
13:09 39.6 °F 33.6 °F 29.95 in West 4.0 mph 5.0 mph 79% 0.00 in
13:14 39.1 °F 32.8 °F 29.95 in SW 1.0 mph 6.0 mph 78% 0.00 in
13:19 39.6 °F 33.6 °F 29.95 in WSW 4.0 mph 7.0 mph 79% 0.00 in
13:24 39.5 °F 33.2 °F 29.95 in SW 3.0 mph 7.0 mph 78% 0.00 in
13:29 39.5 °F 33.8 °F 29.95 in WSW 4.0 mph 6.0 mph 80% 0.00 in
13:34 39.7 °F 33.4 °F 29.95 in SW 4.0 mph 6.0 mph 78% 0.00 in
13:39 39.5 °F 33.2 °F 29.94 in SW 4.0 mph 9.0 mph 78% 0.00 in
13:44 39.1 °F 33.1 °F 29.94 in SSW 3.0 mph 8.0 mph 79% 0.00 in
13:49 38.8 °F 32.5 °F 29.94 in SSW 4.0 mph 8.0 mph 78% 0.00 in
13:54 38.9 °F 32.9 °F 29.94 in West 2.0 mph 6.0 mph 79% 0.00 in
13:59 38.9 °F 32.9 °F 29.94 in WSW 3.0 mph 7.0 mph 79% 0.00 in
14:04 38.8 °F 32.8 °F 29.94 in SW 3.0 mph 6.0 mph 79% 0.00 in
14:09 38.7 °F 32.7 °F 29.95 in SW 4.0 mph 7.0 mph 79% 0.00 in
14:14 38.8 °F 32.8 °F 29.95 in SW 4.0 mph 7.0 mph 79% 0.00 in
14:19 38.8 °F 32.5 °F 29.96 in SW 4.0 mph 7.0 mph 78% 0.00 in
14:24 38.6 °F 32.3 °F 29.96 in SW 4.0 mph 7.0 mph 78% 0.00 in
14:29 38.6 °F 32.3 °F 29.95 in WSW 6.0 mph 7.0 mph 78% 0.00 in
14:34 38.7 °F 32.4 °F 29.96 in SW 3.0 mph 7.0 mph 78% 0.00 in
14:39 38.5 °F 32.2 °F 29.97 in SW 2.0 mph 7.0 mph 78% 0.00 in
14:44 38.3 °F 32.0 °F 29.96 in SW 3.0 mph 7.0 mph 78% 0.00 in
14:49 38.4 °F 32.1 °F 29.97 in SW 4.0 mph 7.0 mph 78% 0.00 in
14:54 38.1 °F 31.8 °F 29.97 in SW 3.0 mph 7.0 mph 78% 0.00 in
14:59 38.1 °F 32.2 °F 29.97 in SW 5.0 mph 6.0 mph 79% 0.00 in
15:04 37.7 °F 31.5 °F 29.96 in WSW 4.0 mph 7.0 mph 78% 0.00 in
15:09 37.9 °F 32.0 °F 29.97 in WSW 4.0 mph 7.0 mph 79% 0.00 in
15:14 37.8 °F 31.9 °F 29.97 in WSW 4.0 mph 7.0 mph 79% 0.00 in
15:19 37.9 °F 32.3 °F 29.96 in SW 4.0 mph 7.0 mph 80% 0.00 in
15:24 38.0 °F 32.1 °F 29.97 in WSW 4.0 mph 6.0 mph 79% 0.00 in
15:29 37.8 °F 31.9 °F 29.97 in SW 4.0 mph 7.0 mph 79% 0.00 in
15:34 37.7 °F 31.8 °F 29.97 in WSW 4.0 mph 8.0 mph 79% 0.00 in
15:39 37.6 °F 31.7 °F 29.98 in SW 3.0 mph 8.0 mph 79% 0.00 in
15:44 37.4 °F 31.5 °F 29.98 in West 4.0 mph 8.0 mph 79% 0.00 in
15:49 37.4 °F 31.5 °F 29.98 in WSW 4.0 mph 6.0 mph 79% 0.00 in
15:54 37.3 °F 31.4 °F 29.99 in SW 4.0 mph 6.0 mph 79% 0.00 in
15:59 37.4 °F 31.5 °F 29.99 in SW 3.0 mph 6.0 mph 79% 0.00 in
16:04 37.5 °F 31.9 °F 29.99 in WSW 1.0 mph 4.0 mph 80% 0.00 in
16:09 37.6 °F 31.7 °F 29.99 in WSW 2.0 mph 3.0 mph 79% 0.00 in
16:14 37.3 °F 31.4 °F 29.99 in Calm   4.0 mph 79% 0.00 in
16:19 37.2 °F 31.3 °F 29.99 in SW 1.0 mph 4.0 mph 79% 0.00 in
16:24 37.2 °F 31.3 °F 29.99 in SW 2.0 mph 4.0 mph 79% 0.00 in
16:29 37.2 °F 31.3 °F 29.99 in WSW 2.0 mph 4.0 mph 79% 0.00 in
16:34 37.2 °F 31.3 °F 29.99 in WSW 1.0 mph 3.0 mph 79% 0.00 in
16:39 37.0 °F 31.1 °F 29.99 in WSW 1.0 mph 3.0 mph 79% 0.00 in
16:44 36.9 °F 31.3 °F 29.99 in WSW 2.0 mph 3.0 mph 80% 0.00 in
16:49 37.0 °F 31.1 °F 29.99 in Calm   2.0 mph 79% 0.00 in
16:54 37.1 °F 31.2 °F 30.00 in WSW 1.0 mph 2.0 mph 79% 0.00 in
16:59 37.0 °F 31.1 °F 30.00 in Calm   3.0 mph 79% 0.00 in
17:04 37.0 °F 31.1 °F 30.00 in WSW 1.0 mph 3.0 mph 79% 0.00 in
17:09 37.0 °F 31.1 °F 30.01 in Calm   2.0 mph 79% 0.00 in
17:14 37.0 °F 31.1 °F 30.01 in Calm   2.0 mph 79% 0.00 in
17:19 36.9 °F 31.3 °F 30.01 in Calm   2.0 mph 80% 0.00 in
17:24 36.8 °F 30.9 °F 30.00 in Calm     79% 0.00 in
17:29 36.6 °F 30.7 °F 30.01 in Calm     79% 0.00 in
17:34 36.3 °F 30.7 °F 30.01 in Calm   1.0 mph 80% 0.00 in
17:39 36.0 °F 30.7 °F 30.02 in Calm     81% 0.00 in
17:44 35.7 °F 30.4 °F 30.03 in Calm     81% 0.00 in
17:49 35.5 °F 30.5 °F 30.03 in Calm     82% 0.00 in
17:54 35.3 °F 30.4 °F 30.03 in Calm     82% 0.00 in
17:59 35.4 °F 30.5 °F 30.03 in Calm     82% 0.00 in
18:04 35.3 °F 30.4 °F 30.03 in Calm     82% 0.00 in
18:14 35.1 °F 30.5 °F 30.04 in Calm     83% 0.00 in
18:19 35.0 °F 30.4 °F 30.05 in Calm     83% 0.00 in
18:24 34.9 °F 30.3 °F 30.05 in Calm     83% 0.00 in
18:29 34.6 °F 30.0 °F 30.05 in Calm     83% 0.00 in
18:34 34.4 °F 30.1 °F 30.05 in Calm     84% 0.00 in
18:39 34.1 °F 29.8 °F 30.05 in Calm     84% 0.00 in
18:44 34.1 °F 29.8 °F 30.05 in Calm     84% 0.00 in
18:49 34.0 °F 30.0 °F 30.05 in Calm     85% 0.00 in
18:54 33.9 °F 29.9 °F 30.05 in Calm     85% 0.00 in
18:59 33.9 °F 29.9 °F 30.05 in Calm     85% 0.00 in
19:04 34.2 °F 30.2 °F 30.05 in Calm     85% 0.00 in
19:09 34.5 °F 30.5 °F 30.05 in Calm     85% 0.00 in
19:14 34.7 °F 30.4 °F 30.06 in Calm   1.0 mph 84% 0.00 in
19:19 35.1 °F 30.8 °F 30.06 in Calm   2.0 mph 84% 0.00 in
19:24 35.2 °F 30.6 °F 30.06 in Calm   2.0 mph 83% 0.00 in
19:29 35.2 °F 30.6 °F 30.05 in Calm     83% 0.00 in
19:34 35.2 °F 30.6 °F 30.05 in Calm     83% 0.00 in
19:39 35.1 °F 30.5 °F 30.05 in Calm     83% 0.00 in
19:44 34.8 °F 30.5 °F 30.05 in Calm     84% 0.00 in
19:49 34.9 °F 30.6 °F 30.06 in SE 2.0 mph 3.0 mph 84% 0.00 in
19:54 34.8 °F 30.5 °F 30.06 in SE 1.0 mph 2.0 mph 84% 0.00 in
19:59 34.9 °F 30.6 °F 30.05 in East 1.0 mph 2.0 mph 84% 0.00 in
20:04 34.9 °F 30.3 °F 30.06 in Calm   2.0 mph 83% 0.00 in
20:09 35.1 °F 30.5 °F 30.06 in NE 1.0 mph 4.0 mph 83% 0.00 in
20:14 35.0 °F 30.1 °F 30.06 in ENE 1.0 mph 4.0 mph 82% 0.00 in
20:19 35.0 °F 30.1 °F 30.06 in ENE 1.0 mph 3.0 mph 82% 0.00 in
20:24 34.8 °F 29.9 °F 30.06 in ENE 1.0 mph 3.0 mph 82% 0.00 in
20:29 34.7 °F 29.8 °F 30.06 in East 1.0 mph 3.0 mph 82% 0.00 in
20:34 34.6 °F 29.7 °F 30.06 in ESE 1.0 mph 3.0 mph 82% 0.00 in
20:39 34.5 °F 29.6 °F 30.06 in Calm     82% 0.00 in
20:44 34.5 °F 29.6 °F 30.06 in Calm     82% 0.00 in
20:49 34.5 °F 29.6 °F 30.06 in Calm     82% 0.00 in
20:54 34.4 °F 29.5 °F 30.06 in Calm     82% 0.00 in
20:59 34.4 °F 29.8 °F 30.06 in NE 1.0 mph 3.0 mph 83% 0.00 in
21:04 34.4 °F 29.5 °F 30.06 in Calm   3.0 mph 82% 0.00 in
21:09 34.4 °F 29.5 °F 30.06 in ENE 1.0 mph 2.0 mph 82% 0.00 in
21:14 34.4 °F 29.8 °F 30.06 in ENE 1.0 mph 2.0 mph 83% 0.00 in
21:19 34.3 °F 29.7 °F 30.06 in ENE 1.0 mph 3.0 mph 83% 0.00 in
21:24 34.3 °F 29.7 °F 30.06 in ENE 1.0 mph 3.0 mph 83% 0.00 in
21:29 34.3 °F 29.7 °F 30.06 in Calm   3.0 mph 83% 0.00 in
21:34 34.3 °F 29.7 °F 30.06 in ENE 1.0 mph 3.0 mph 83% 0.00 in
21:39 34.3 °F 29.7 °F 30.06 in ENE 1.0 mph 3.0 mph 83% 0.00 in
21:44 34.4 °F 29.8 °F 30.06 in East 1.0 mph 3.0 mph 83% 0.00 in
21:49 34.3 °F 29.7 °F 30.06 in ESE 2.0 mph 3.0 mph 83% 0.00 in
21:54 34.3 °F 29.7 °F 30.06 in East 1.0 mph 3.0 mph 83% 0.00 in
21:59 34.3 °F 29.7 °F 30.06 in East 1.0 mph 3.0 mph 83% 0.00 in
22:04 34.3 °F 29.7 °F 30.06 in East 2.0 mph 4.0 mph 83% 0.00 in
22:09 34.3 °F 29.7 °F 30.05 in ESE 2.0 mph 6.0 mph 83% 0.00 in
22:14 34.3 °F 29.7 °F 30.05 in ENE 1.0 mph 4.0 mph 83% 0.00 in
22:19 34.4 °F 29.8 °F 30.05 in East 2.0 mph 4.0 mph 83% 0.00 in
22:24 34.3 °F 29.7 °F 30.05 in East 1.0 mph 5.0 mph 83% 0.00 in
22:29 34.3 °F 29.7 °F 30.05 in East 1.0 mph 5.0 mph 83% 0.00 in
22:34 34.2 °F 29.6 °F 30.05 in ENE 1.0 mph 3.0 mph 83% 0.00 in
22:39 34.1 °F 29.5 °F 30.04 in East 1.0 mph 3.0 mph 83% 0.00 in
22:44 34.1 °F 29.5 °F 30.04 in East 1.0 mph 3.0 mph 83% 0.00 in
22:49 34.1 °F 29.5 °F 30.04 in NE 1.0 mph 5.0 mph 83% 0.00 in
22:54 34.2 °F 29.6 °F 30.04 in East 2.0 mph 5.0 mph 83% 0.00 in
22:59 34.3 °F 29.4 °F 30.04 in East 1.0 mph 5.0 mph 82% 0.00 in
23:04 34.3 °F 29.4 °F 30.04 in East 2.0 mph 4.0 mph 82% 0.00 in
23:09 34.3 °F 29.4 °F 30.04 in ENE 1.0 mph 6.0 mph 82% 0.00 in
23:14 34.3 °F 29.4 °F 30.04 in East 3.0 mph 5.0 mph 82% 0.00 in
23:19 34.4 °F 29.2 °F 30.03 in ENE 2.0 mph 7.0 mph 81% 0.00 in
23:24 34.5 °F 29.3 °F 30.03 in ENE 3.0 mph 7.0 mph 81% 0.00 in
23:29 34.6 °F 29.1 °F 30.04 in ENE 3.0 mph 7.0 mph 80% 0.00 in
23:34 34.7 °F 29.2 °F 30.04 in ENE 3.0 mph 7.0 mph 80% 0.00 in
23:39 34.6 °F 29.1 °F 30.04 in ENE 3.0 mph 7.0 mph 80% 0.00 in
23:44 34.6 °F 29.4 °F 30.04 in ENE 3.0 mph 7.0 mph 81% 0.00 in
23:49 34.6 °F 29.1 °F 30.04 in ENE 7.0 mph 8.0 mph 80% 0.00 in
23:54 34.7 °F 29.2 °F 30.04 in NE 3.0 mph 8.0 mph 80% 0.00 in
23:59 34.7 °F 29.2 °F 30.03 in East 4.0 mph 8.0 mph 80% 0.00 in
Buffalo, New York, USA
Compliments of Weather Underground - 2.5 mb